Omaha, Nebraska
Current Conditions -  °F | °C
As of 3:52 AM on Tuesday 21 Oct 2014 (Local Time) from KOMA Reporting Station
Clear Clear  
Wind Chill: 41°   Ceiling: Unl
Heat Index: 44°   Visibility: 10mi
Dew Point: 40°   Wind: 6mph
Humidity: 85%   Direction: 130°SE
Pressure: 30.09"   Gusts: NA
Location:  41.26°N, 95.94°W
Report Text: KOMA 210852Z 13005KT 10SM CLR 07/04 A3009 RMK AO2 SLP186 T00670044 50005
Loading
Personal Weather Stations






























Interactive Weather Map
Tropical Storm Tracking
New forecast layout! Learn more

10-Day Weather Forecast

Advertisements
Track Severe Weather on mobile